Time;durP1;ratioP1;P1;durP2;ratioP2;P2;SDS_P1;SDS_P2;PMS_P1;PMS_P2;Temp;Humidity;BMP_temperature;BMP_pressure;BME280_temperature;BME280_humidity;BME280_pressure;Samples;Min_cycle;Max_cycle;Signal;HPM_P1;HPM_P2
2024/01/06 00:04:50;;;;;;;76.00;30.40;;;;;;;1.09;88.98;97770.75;224205;1290;22552;-80
2024/01/06 00:09:55;;;;;;;73.30;30.10;;;;;;;1.09;88.98;97766.46;224281;1276;22589;-84
2024/01/06 00:14:59;;;;;;;71.20;28.70;;;;;;;1.07;88.83;97773.05;224202;1290;22575;-83
2024/01/06 00:20:06;;;;;;;54.60;27.10;;;;;;;1.02;88.73;97775.64;224029;1290;24399;-83
2024/01/06 00:25:15;;;;;;;59.30;28.10;;;;;;;0.94;88.67;97775.23;224372;1290;22584;-82
2024/01/06 00:30:21;;;;;;;63.80;27.60;;;;;;;0.89;88.79;97767.18;224148;1290;22559;-82
2024/01/06 00:35:25;;;;;;;50.60;24.50;;;;;;;0.88;88.93;97770.61;225353;1289;22838;-82
2024/01/06 00:40:33;;;;;;;50.00;25.10;;;;;;;0.88;88.89;97769.81;224389;1289;22604;-82
2024/01/06 00:45:36;;;;;;;59.90;25.80;;;;;;;0.85;88.83;97768.48;224865;1290;22579;-83
2024/01/06 00:50:39;;;;;;;55.80;25.80;;;;;;;0.79;88.58;97774.96;224297;1290;22582;-83
2024/01/06 00:55:42;;;;;;;78.20;26.00;;;;;;;0.73;88.68;97782.29;224280;1290;22580;-82
2024/01/06 01:00:48;;;;;;;62.90;27.60;;;;;;;0.75;89.01;97788.20;224083;1290;22602;-84
2024/01/06 01:05:51;;;;;;;66.40;27.00;;;;;;;0.78;89.13;97789.61;224216;1283;22619;-82
2024/01/06 01:10:55;;;;;;;52.70;25.50;;;;;;;0.80;88.99;97793.27;224317;1290;25399;-82
2024/01/06 01:15:58;;;;;;;49.10;25.20;;;;;;;0.81;89.18;97795.09;224414;1289;22581;-82
2024/01/06 01:21:02;;;;;;;47.00;23.30;;;;;;;0.80;89.13;97793.20;224469;1289;22533;-81
2024/01/06 01:26:06;;;;;;;55.70;26.30;;;;;;;0.80;89.29;97788.02;224327;1289;22567;-82
2024/01/06 01:31:08;;;;;;;51.30;25.30;;;;;;;0.80;88.96;97788.11;224821;1277;22571;-85
2024/01/06 01:36:14;;;;;;;65.20;29.10;;;;;;;0.78;89.14;97789.95;224393;1274;22618;-80
2024/01/06 01:41:17;;;;;;;68.80;29.30;;;;;;;0.80;89.20;97783.49;224293;1289;22546;-81
2024/01/06 01:46:21;;;;;;;54.20;25.00;;;;;;;0.81;88.99;97788.31;224335;1290;22490;-81
2024/01/06 01:51:30;;;;;;;53.50;26.00;;;;;;;0.78;89.16;97788.80;224104;1289;22552;-80
2024/01/06 01:56:39;;;;;;;66.10;28.60;;;;;;;0.80;89.36;97791.35;224411;1282;22559;-82
2024/01/06 02:01:44;;;;;;;64.00;30.50;;;;;;;0.84;89.35;97787.01;224364;1289;22635;-82
2024/01/06 02:06:48;;;;;;;62.70;29.40;;;;;;;0.84;89.39;97783.80;224588;1283;22942;-82
2024/01/06 02:11:51;;;;;;;68.60;31.70;;;;;;;0.83;89.16;97783.55;224349;1282;22563;-82
2024/01/06 02:16:55;;;;;;;61.00;28.70;;;;;;;0.83;89.38;97781.02;224715;1288;22497;-84
2024/01/06 02:21:58;;;;;;;60.10;28.00;;;;;;;0.83;89.49;97767.83;224578;1290;22556;-81
2024/01/06 02:27:01;;;;;;;64.50;27.90;;;;;;;0.82;89.39;97772.27;224037;1290;24823;-82
2024/01/06 02:32:06;;;;;;;63.90;29.40;;;;;;;0.83;89.45;97768.73;224244;1286;22537;-81
2024/01/06 02:37:08;;;;;;;62.60;28.90;;;;;;;0.83;89.46;97764.15;224590;1287;22694;-82
2024/01/06 02:42:13;;;;;;;64.00;29.10;;;;;;;0.82;89.51;97760.83;224741;1276;22560;-83
2024/01/06 02:47:16;;;;;;;56.70;27.40;;;;;;;0.79;89.39;97764.73;224250;1290;22565;-80
2024/01/06 02:52:22;;;;;;;61.10;27.20;;;;;;;0.81;89.65;97768.00;224700;1276;22554;-82
2024/01/06 02:57:26;;;;;;;58.90;28.30;;;;;;;0.84;89.57;97762.40;224830;1289;22555;-83
2024/01/06 03:02:30;;;;;;;68.20;30.50;;;;;;;0.86;89.60;97756.05;224196;1286;22543;-83
2024/01/06 03:07:33;;;;;;;67.20;31.70;;;;;;;0.87;89.76;97743.81;224391;1290;25435;-84
2024/01/06 03:12:38;;;;;;;67.70;33.50;;;;;;;0.88;89.61;97745.96;224527;1286;26353;-84
2024/01/06 03:17:41;;;;;;;73.60;34.40;;;;;;;0.90;89.75;97743.20;224720;1290;22571;-83
2024/01/06 03:22:46;;;;;;;67.10;34.30;;;;;;;0.95;89.75;97734.17;224362;1289;25058;-84
2024/01/06 03:27:49;;;;;;;66.00;34.30;;;;;;;0.98;89.69;97730.20;224289;1289;25969;-85
2024/01/06 03:32:51;;;;;;;70.40;36.40;;;;;;;1.03;89.89;97728.20;224401;1290;24217;-81
2024/01/06 03:37:55;;;;;;;68.50;35.10;;;;;;;1.09;89.91;97730.92;224459;1289;22559;-82
2024/01/06 03:42:58;;;;;;;75.10;37.00;;;;;;;1.13;89.86;97735.15;224479;1290;22552;-80
2024/01/06 03:48:09;;;;;;;74.30;36.40;;;;;;;1.14;89.72;97742.35;224978;1289;22613;-82
2024/01/06 03:53:13;;;;;;;72.90;37.20;;;;;;;1.18;89.72;97750.23;224296;1289;25439;-82
2024/01/06 03:58:16;;;;;;;69.90;36.20;;;;;;;1.24;89.86;97755.91;224320;1289;22560;-82
2024/01/06 04:03:21;;;;;;;61.70;33.40;;;;;;;1.29;89.93;97752.94;224456;1289;22570;-81
2024/01/06 04:08:24;;;;;;;59.00;33.60;;;;;;;1.32;89.70;97752.98;224262;1282;22551;-81
2024/01/06 04:13:28;;;;;;;59.80;33.40;;;;;;;1.36;89.62;97757.80;224236;1290;22570;-82
2024/01/06 04:18:33;;;;;;;62.90;34.60;;;;;;;1.39;89.75;97755.86;224430;1290;22597;-85
2024/01/06 04:23:39;;;;;;;70.00;37.70;;;;;;;1.46;89.87;97760.14;224655;1276;22589;-82
2024/01/06 04:28:42;;;;;;;65.60;36.50;;;;;;;1.50;89.70;97760.36;224393;1290;22578;-81
2024/01/06 04:33:46;;;;;;;64.10;36.10;;;;;;;1.52;89.69;97756.34;224364;1290;22575;-81
2024/01/06 04:38:49;;;;;;;59.90;33.10;;;;;;;1.56;89.81;97759.95;224149;1285;22576;-83
2024/01/06 04:43:54;;;;;;;65.70;36.60;;;;;;;1.59;89.74;97759.93;224426;1289;22522;-83
2024/01/06 04:48:56;;;;;;;63.50;37.00;;;;;;;1.59;89.56;97760.10;224329;1277;22582;-83
2024/01/06 04:54:10;;;;;;;64.70;35.40;;;;;;;1.60;89.54;97755.80;224380;1289;22562;-82
2024/01/06 04:59:18;;;;;;;62.20;35.70;;;;;;;1.62;89.52;97755.81;224423;1290;22553;-82
2024/01/06 05:04:22;;;;;;;65.20;36.90;;;;;;;1.67;89.64;97754.55;224483;1275;22536;-82
2024/01/06 05:09:26;;;;;;;63.20;36.70;;;;;;;1.72;89.77;97760.17;224328;1290;22560;-82
2024/01/06 05:14:28;;;;;;;74.60;41.70;;;;;;;1.75;89.75;97764.00;224128;1290;22578;-81
2024/01/06 05:19:37;;;;;;;78.20;44.30;;;;;;;1.79;89.60;97769.70;225003;1290;22561;-83
2024/01/06 05:24:40;;;;;;;88.90;47.80;;;;;;;1.84;89.73;97763.23;224362;1290;26134;-82
2024/01/06 05:29:44;;;;;;;81.60;45.70;;;;;;;1.91;89.94;97765.35;224252;1268;22546;-81
2024/01/06 05:34:50;;;;;;;91.10;49.90;;;;;;;1.96;89.84;97761.11;224271;1290;22566;-83
2024/01/06 05:39:54;;;;;;;80.60;47.50;;;;;;;1.99;89.60;97764.09;224333;1290;22560;-85
2024/01/06 05:45:14;;;;;;;91.70;54.00;;;;;;;2.01;89.61;97767.88;224368;1290;22979;-81
2024/01/06 05:50:18;;;;;;;104.40;54.40;;;;;;;2.04;89.89;97766.00;224645;1290;22996;-80
2024/01/06 05:55:21;;;;;;;88.70;49.20;;;;;;;2.04;89.44;97768.67;224229;1290;22562;-81
2024/01/06 06:00:25;;;;;;;73.60;42.40;;;;;;;2.02;89.55;97769.34;225082;1272;22709;-81
2024/01/06 06:05:28;;;;;;;73.40;41.60;;;;;;;2.02;89.46;97773.52;224236;1276;23071;-83
2024/01/06 06:10:40;;;;;;;75.40;42.20;;;;;;;2.07;89.66;97769.00;224264;1287;25456;-83
2024/01/06 06:15:44;;;;;;;84.70;43.20;;;;;;;2.08;89.54;97774.98;224322;1276;22665;-83
2024/01/06 06:20:47;;;;;;;80.20;44.00;;;;;;;2.09;89.68;97781.81;224433;1290;22560;-83
2024/01/06 06:25:55;;;;;;;73.90;40.50;;;;;;;2.12;89.63;97786.39;225092;1277;22571;-81
2024/01/06 06:30:58;;;;;;;73.40;39.90;;;;;;;2.17;89.63;97788.33;224484;1290;22848;-83
2024/01/06 06:36:02;;;;;;;75.90;41.90;;;;;;;2.18;89.56;97791.66;224125;1286;22556;-82
2024/01/06 06:41:08;;;;;;;71.60;40.30;;;;;;;2.20;89.45;97786.95;224388;1290;23118;-82
2024/01/06 06:46:11;;;;;;;73.40;41.70;;;;;;;2.21;89.47;97792.71;224589;1290;22501;-83
2024/01/06 06:51:13;;;;;;;75.70;42.00;;;;;;;2.22;89.40;97801.30;224382;1290;22618;-81
2024/01/06 06:56:17;;;;;;;70.20;41.90;;;;;;;2.25;89.69;97805.64;224259;1290;22538;-82
2024/01/06 07:01:20;;;;;;;76.80;44.40;;;;;;;2.28;89.70;97807.44;224340;1290;22556;-83
2024/01/06 07:06:26;;;;;;;81.00;47.60;;;;;;;2.30;89.58;97812.59;225018;1290;22648;-84
2024/01/06 07:11:29;;;;;;;79.00;45.00;;;;;;;2.35;89.60;97814.85;224811;1289;22574;-83
2024/01/06 07:16:32;;;;;;;87.10;52.50;;;;;;;2.40;89.59;97830.49;224666;1290;22585;-82
2024/01/06 07:21:34;;;;;;;79.00;49.80;;;;;;;2.50;89.80;97835.45;224936;1290;22624;-84
2024/01/06 07:26:37;;;;;;;84.20;49.50;;;;;;;2.58;89.88;97829.65;224821;1290;22584;-84
2024/01/06 07:31:40;;;;;;;85.70;49.60;;;;;;;2.64;89.69;97832.02;224820;1290;25442;-83
2024/01/06 07:36:55;;;;;;;83.60;47.60;;;;;;;2.68;89.71;97836.92;224920;1290;22867;-82
2024/01/06 07:41:58;;;;;;;75.00;45.20;;;;;;;2.70;89.63;97838.10;224347;1290;22651;-80
2024/01/06 07:47:05;;;;;;;80.00;46.70;;;;;;;2.74;89.54;97833.19;224311;1290;22590;-82
2024/01/06 07:52:11;;;;;;;74.60;42.00;;;;;;;2.81;89.56;97836.97;224470;1290;22547;-82
2024/01/06 07:57:13;;;;;;;78.90;44.00;;;;;;;2.85;89.42;97849.91;224055;1289;22479;-84
2024/01/06 08:02:18;;;;;;;78.00;45.20;;;;;;;2.90;89.67;97855.30;225155;1274;22559;-83
2024/01/06 08:07:23;;;;;;;83.80;48.10;;;;;;;2.96;89.61;97860.56;224141;1279;23384;-83
2024/01/06 08:12:28;;;;;;;96.20;51.20;;;;;;;3.03;89.41;97863.65;225462;1290;23309;-81
2024/01/06 08:17:33;;;;;;;101.50;54.30;;;;;;;3.06;89.18;97864.77;224076;1290;22588;-81
2024/01/06 08:22:38;;;;;;;102.20;57.70;;;;;;;3.10;89.18;97870.74;224346;1276;22553;-81
2024/01/06 08:27:41;;;;;;;89.60;51.70;;;;;;;3.16;89.25;97874.90;224486;1290;22538;-83
2024/01/06 08:32:44;;;;;;;89.50;51.90;;;;;;;3.25;89.25;97875.55;224345;1290;22558;-84
2024/01/06 08:37:47;;;;;;;94.70;53.30;;;;;;;3.36;89.55;97883.13;224289;1290;22658;-81
2024/01/06 08:42:50;;;;;;;87.00;52.20;;;;;;;3.46;89.39;97883.20;224289;1290;22554;-80
2024/01/06 08:47:52;;;;;;;98.20;55.60;;;;;;;3.53;89.15;97885.88;224237;1290;22550;-81
2024/01/06 08:52:55;;;;;;;83.10;49.10;;;;;;;3.63;89.17;97884.48;224335;1290;24256;-80
2024/01/06 08:57:58;;;;;;;79.40;47.80;;;;;;;3.71;88.98;97888.20;224321;1290;22551;-80
2024/01/06 09:03:01;;;;;;;79.80;45.70;;;;;;;3.79;89.15;97895.86;224180;1290;22574;-82
2024/01/06 09:08:06;;;;;;;78.20;46.00;;;;;;;3.88;89.05;97898.43;224281;1290;22564;-83
2024/01/06 09:13:11;;;;;;;75.50;43.10;;;;;;;4.00;89.27;97906.23;224482;1290;22560;-82
2024/01/06 09:18:23;;;;;;;70.50;41.00;;;;;;;4.02;88.88;97907.08;224334;1289;22631;-82
2024/01/06 09:23:25;;;;;;;73.10;47.00;;;;;;;4.00;88.82;97912.54;224148;1290;25310;-83
2024/01/06 09:28:28;;;;;;;71.50;43.80;;;;;;;4.01;88.64;97918.65;224230;1289;22594;-82
2024/01/06 09:33:32;;;;;;;79.20;46.10;;;;;;;4.02;88.59;97921.29;224223;1290;22563;-81
2024/01/06 09:38:34;;;;;;;77.70;47.80;;;;;;;4.02;88.69;97922.08;224086;1280;22565;-82
2024/01/06 09:43:38;;;;;;;73.00;45.30;;;;;;;4.03;88.53;97925.92;224182;1290;22646;-83
2024/01/06 09:48:43;;;;;;;76.90;47.50;;;;;;;4.04;88.79;97924.39;224232;1290;22563;-82
2024/01/06 09:53:57;;;;;;;78.10;46.10;;;;;;;4.07;88.72;97923.61;224097;1289;22582;-81
2024/01/06 09:59:07;;;;;;;82.00;50.30;;;;;;;4.09;88.89;97918.99;224629;1290;22567;-81
2024/01/06 10:04:11;;;;;;;81.00;50.30;;;;;;;4.14;88.76;97918.76;224298;1290;24235;-82
2024/01/06 10:09:16;;;;;;;83.20;52.00;;;;;;;4.22;89.18;97916.37;224438;1289;22562;-82
2024/01/06 10:14:19;;;;;;;83.20;51.40;;;;;;;4.26;89.14;97917.92;224341;1290;22635;-83
2024/01/06 10:19:24;;;;;;;88.20;52.70;;;;;;;4.31;88.66;97920.19;224292;1290;22582;-82
2024/01/06 10:24:28;;;;;;;91.00;58.60;;;;;;;4.36;89.02;97923.30;224851;1290;22591;-82
2024/01/06 10:29:40;;;;;;;94.90;60.40;;;;;;;4.40;88.75;97916.79;224400;1276;22573;-83
2024/01/06 10:34:42;;;;;;;101.00;61.70;;;;;;;4.44;88.70;97916.91;224403;1274;22611;-83
2024/01/06 10:40:24;;;;;;;98.10;60.00;;;;;;;4.48;88.82;97912.52;224729;1288;22556;-83
2024/01/06 10:45:29;;;;;;;87.30;56.30;;;;;;;4.56;89.15;97914.62;224719;1290;22587;-84
2024/01/06 10:50:34;;;;;;;86.20;54.30;;;;;;;4.59;88.39;97912.00;224382;1290;22563;-83
2024/01/06 10:55:37;;;;;;;92.20;57.50;;;;;;;4.61;88.70;97908.75;224426;1288;22565;-83
2024/01/06 11:00:40;;;;;;;95.70;59.50;;;;;;;4.64;88.85;97907.05;224403;1287;22563;-83
2024/01/06 11:05:45;;;;;;;93.70;56.70;;;;;;;4.69;88.88;97905.63;224862;1290;25334;-82
2024/01/06 11:10:48;;;;;;;88.10;54.90;;;;;;;4.76;89.15;97893.31;224338;1290;24238;-82
2024/01/06 11:16:06;;;;;;;94.50;57.10;;;;;;;4.85;88.78;97898.92;224662;1289;22654;-82
2024/01/06 11:21:17;;;;;;;97.50;58.00;;;;;;;4.92;88.88;97901.05;224502;1290;23190;-81
2024/01/06 11:26:20;;;;;;;88.70;55.60;;;;;;;5.03;88.96;97896.70;224537;1289;194174;-82
2024/01/06 11:31:31;;;;;;;92.80;55.50;;;;;;;5.12;88.72;97896.86;224390;1290;22622;-82
2024/01/06 11:36:33;;;;;;;87.90;55.20;;;;;;;5.19;88.53;97888.04;224393;1289;22524;-80
2024/01/06 11:41:49;;;;;;;90.30;56.00;;;;;;;5.22;88.29;97888.95;224392;1290;22591;-84
2024/01/06 11:47:02;;;;;;;85.90;54.00;;;;;;;5.23;88.37;97885.70;224771;1289;25423;-83
2024/01/06 11:52:06;;;;;;;92.30;56.10;;;;;;;5.23;88.14;97883.19;224849;1290;22591;-80
2024/01/06 11:57:10;;;;;;;90.90;53.90;;;;;;;5.26;88.20;97883.69;224685;1283;22583;-80
2024/01/06 12:02:18;;;;;;;89.60;55.80;;;;;;;5.27;88.08;97880.19;224388;1273;23722;-81
2024/01/06 12:07:22;;;;;;;83.70;53.30;;;;;;;5.27;88.17;97882.38;224565;1289;22689;-83
2024/01/06 12:12:26;;;;;;;83.60;52.30;;;;;;;5.26;88.11;97889.48;224670;1289;22563;-82
2024/01/06 12:17:31;;;;;;;84.20;51.70;;;;;;;5.21;88.45;97890.92;224358;1289;22604;-83
2024/01/06 12:22:36;;;;;;;82.30;51.20;;;;;;;5.16;87.90;97891.90;224957;1277;22583;-82
2024/01/06 12:27:44;;;;;;;77.00;48.40;;;;;;;5.13;88.33;97891.55;224357;1279;22585;-84
2024/01/06 12:32:51;;;;;;;78.70;48.00;;;;;;;5.11;88.46;97894.23;225011;1286;23634;-81
2024/01/06 12:37:56;;;;;;;85.30;51.10;;;;;;;5.10;88.55;97893.30;225154;1290;22598;-83
2024/01/06 12:42:59;;;;;;;81.80;50.50;;;;;;;5.08;88.44;97902.09;224774;1290;22726;-82
2024/01/06 12:48:05;;;;;;;80.90;47.90;;;;;;;5.05;88.21;97902.61;225117;1290;22603;-84
2024/01/06 12:53:07;;;;;;;72.20;43.40;;;;;;;5.02;88.06;97899.14;224416;1285;22597;-82
2024/01/06 12:58:15;;;;;;;70.30;43.20;;;;;;;4.98;88.50;97902.92;224292;1283;22539;-84
2024/01/06 13:03:18;;;;;;;74.50;44.60;;;;;;;4.91;88.20;97905.02;224434;1288;22560;-82
2024/01/06 13:08:22;;;;;;;67.30;40.70;;;;;;;4.84;88.50;97908.61;224300;1290;22602;-83
2024/01/06 13:13:26;;;;;;;60.60;38.90;;;;;;;4.79;88.68;97913.08;224382;1277;22596;-81
2024/01/06 13:18:33;;;;;;;57.60;34.70;;;;;;;4.69;88.23;97910.92;224524;1290;22599;-82
2024/01/06 13:23:42;;;;;;;57.70;34.60;;;;;;;4.56;87.88;97917.20;224417;1283;22628;-84
2024/01/06 13:28:45;;;;;;;56.20;33.30;;;;;;;4.43;87.95;97927.88;224311;1289;22621;-82
2024/01/06 13:33:51;;;;;;;54.30;34.90;;;;;;;4.31;88.01;97931.69;224491;1287;22579;-82
2024/01/06 13:38:56;;;;;;;53.50;34.00;;;;;;;4.21;88.33;97934.20;224514;1290;22552;-82
2024/01/06 13:43:59;;;;;;;48.40;31.50;;;;;;;4.13;88.27;97935.48;224210;1290;22629;-82
2024/01/06 13:49:04;;;;;;;47.50;30.90;;;;;;;3.98;88.06;97934.84;224345;1273;22579;-81
2024/01/06 13:54:09;;;;;;;48.30;30.40;;;;;;;3.83;88.10;97936.46;224711;1277;24297;-84
2024/01/06 13:59:16;;;;;;;47.90;31.10;;;;;;;3.70;88.18;97943.08;224400;1270;22876;-81
2024/01/06 14:04:23;;;;;;;45.30;29.60;;;;;;;3.60;88.32;97948.45;224354;1289;22564;-82
2024/01/06 14:09:28;;;;;;;50.60;30.80;;;;;;;3.49;88.51;97953.18;224307;1290;23766;-80
2024/01/06 14:14:33;;;;;;;48.50;32.10;;;;;;;3.44;88.61;97952.36;224223;1290;22566;-82
2024/01/06 14:19:37;;;;;;;49.90;31.00;;;;;;;3.40;88.57;97963.36;224406;1289;24296;-84
2024/01/06 14:24:40;;;;;;;47.20;30.80;;;;;;;3.35;88.79;97965.19;224685;1290;22543;-85
2024/01/06 14:29:43;;;;;;;49.70;29.80;;;;;;;3.28;88.77;97962.99;224813;1286;25280;-85
2024/01/06 14:34:48;;;;;;;50.70;30.20;;;;;;;3.19;88.73;97975.22;224306;1290;22579;-82
2024/01/06 14:39:50;;;;;;;50.50;30.80;;;;;;;3.11;88.83;97980.73;224376;1285;22606;-82
2024/01/06 14:44:54;;;;;;;47.10;29.50;;;;;;;3.02;88.86;97980.47;224262;1290;24268;-82
2024/01/06 14:50:00;;;;;;;47.20;29.40;;;;;;;2.94;88.97;97986.20;224355;1271;22529;-84
2024/01/06 14:55:05;;;;;;;47.00;29.80;;;;;;;2.85;89.04;97992.86;224740;1271;25448;-81
2024/01/06 15:00:12;;;;;;;42.90;27.20;;;;;;;2.77;89.07;97998.77;224345;1283;22574;-84
2024/01/06 15:05:15;;;;;;;44.50;28.40;;;;;;;2.66;89.25;98000.72;224556;1290;23599;-84
2024/01/06 15:10:20;;;;;;;42.70;27.20;;;;;;;2.57;89.17;98000.97;224089;1289;22591;-81
2024/01/06 15:15:24;;;;;;;48.40;28.50;;;;;;;2.52;89.33;98004.70;224289;1290;22588;-83
2024/01/06 15:20:28;;;;;;;43.40;27.70;;;;;;;2.49;89.56;98005.97;224481;1290;22536;-84
2024/01/06 15:25:31;;;;;;;53.80;31.20;;;;;;;2.51;89.90;98009.60;224392;1290;22571;-83
2024/01/06 15:30:34;;;;;;;54.50;29.50;;;;;;;2.52;89.93;98017.84;224159;1290;22558;-83
2024/01/06 15:35:36;;;;;;;43.60;26.00;;;;;;;2.53;89.80;98024.67;224346;1290;22583;-84
2024/01/06 15:40:42;;;;;;;39.10;23.40;;;;;;;2.52;89.81;98036.28;224175;1290;25450;-83
2024/01/06 15:45:53;;;;;;;34.10;21.20;;;;;;;2.45;89.54;98034.68;224848;1290;24258;-82
2024/01/06 15:50:59;;;;;;;36.40;22.30;;;;;;;2.38;89.52;98030.77;224375;1288;22567;-80
2024/01/06 15:56:03;;;;;;;41.30;20.80;;;;;;;2.32;89.73;98034.13;224213;1289;25043;-82
2024/01/06 16:01:06;;;;;;;38.20;22.30;;;;;;;2.24;89.62;98039.62;224264;1290;24266;-81
2024/01/06 16:06:09;;;;;;;39.90;22.50;;;;;;;2.16;89.66;98040.22;224327;1290;22647;-82
2024/01/06 16:11:13;;;;;;;37.00;22.40;;;;;;;2.12;89.78;98042.23;224565;1289;22544;-81
2024/01/06 16:16:16;;;;;;;37.00;21.80;;;;;;;2.10;89.92;98048.48;224277;1289;22553;-81
2024/01/06 16:21:22;;;;;;;41.00;21.40;;;;;;;2.05;89.90;98046.86;224533;1290;22576;-82
2024/01/06 16:26:27;;;;;;;32.40;18.40;;;;;;;2.02;89.94;98047.25;224573;1289;22579;-82
2024/01/06 16:31:30;;;;;;;44.20;25.30;;;;;;;1.99;90.05;98049.38;224317;1285;22588;-81
2024/01/06 16:36:33;;;;;;;43.00;25.00;;;;;;;1.99;90.16;98049.80;224352;1286;22525;-81
2024/01/06 16:41:41;;;;;;;40.60;24.70;;;;;;;1.97;90.15;98047.70;224502;1289;22739;-81
2024/01/06 16:46:44;;;;;;;38.00;24.40;;;;;;;1.94;90.08;98051.88;224378;1290;22523;-82
2024/01/06 16:51:48;;;;;;;36.20;21.80;;;;;;;1.90;90.12;98052.61;224300;1289;22570;-82
2024/01/06 16:56:53;;;;;;;28.20;19.10;;;;;;;1.87;89.98;98058.33;224638;1290;22557;-82
2024/01/06 17:01:58;;;;;;;27.00;17.20;;;;;;;1.80;89.91;98059.52;224410;1289;22619;-82
2024/01/06 17:07:04;;;;;;;26.30;16.60;;;;;;;1.73;89.91;98064.65;224998;1290;22597;-83
2024/01/06 17:12:07;;;;;;;28.20;17.50;;;;;;;1.69;89.90;98063.69;224779;1289;22549;-83
2024/01/06 17:17:11;;;;;;;26.30;17.30;;;;;;;1.62;89.89;98073.02;224701;1286;22629;-82
2024/01/06 17:22:15;;;;;;;24.30;15.70;;;;;;;1.57;89.88;98069.35;224868;1289;22577;-81
2024/01/06 17:27:21;;;;;;;26.20;16.80;;;;;;;1.53;89.90;98076.23;224933;1290;22587;-81
2024/01/06 17:32:28;;;;;;;25.90;16.60;;;;;;;1.46;89.77;98073.48;224904;1287;22567;-81
2024/01/06 17:37:30;;;;;;;26.10;17.00;;;;;;;1.39;89.84;98077.36;225327;1290;22566;-82
2024/01/06 17:42:37;;;;;;;25.40;16.20;;;;;;;1.35;89.94;98082.46;224798;1276;22661;-82
2024/01/06 17:47:44;;;;;;;24.10;15.70;;;;;;;1.28;89.79;98081.94;224984;1271;22549;-81
2024/01/06 17:52:48;;;;;;;23.00;13.60;;;;;;;1.21;89.87;98080.30;224951;1284;22726;-81
2024/01/06 17:57:53;;;;;;;22.90;14.90;;;;;;;1.15;89.78;98083.20;224931;1289;22626;-82
2024/01/06 18:03:00;;;;;;;22.30;14.30;;;;;;;1.08;89.92;98081.03;224838;1272;22553;-81
2024/01/06 18:08:07;;;;;;;22.10;13.90;;;;;;;1.03;89.92;98085.30;225329;1290;22603;-82
2024/01/06 18:13:09;;;;;;;23.00;14.30;;;;;;;1.01;90.02;98084.64;224810;1284;23398;-82
2024/01/06 18:18:14;;;;;;;23.10;13.90;;;;;;;0.98;90.12;98088.54;224859;1289;22730;-82
2024/01/06 18:23:19;;;;;;;21.60;13.20;;;;;;;0.95;90.04;98094.39;224934;1290;22744;-82
2024/01/06 18:28:26;;;;;;;28.30;16.90;;;;;;;0.92;90.03;98096.48;224929;1288;22528;-82
2024/01/06 18:33:28;;;;;;;42.60;22.90;;;;;;;0.91;90.27;98098.25;224856;1287;22556;-81
2024/01/06 18:38:31;;;;;;;37.30;20.30;;;;;;;0.93;90.32;98099.31;224500;1286;22744;-81
2024/01/06 18:43:36;;;;;;;29.20;18.60;;;;;;;0.93;90.36;98105.20;224348;1289;22592;-80
2024/01/06 18:48:38;;;;;;;26.40;16.80;;;;;;;0.93;90.31;98100.71;224591;1284;23028;-81
2024/01/06 18:53:43;;;;;;;27.60;16.60;;;;;;;0.92;90.33;98103.84;224389;1290;22605;-81
2024/01/06 18:58:46;;;;;;;23.60;14.30;;;;;;;0.90;90.35;98103.92;224397;1289;22563;-80
2024/01/06 19:03:50;;;;;;;25.20;14.00;;;;;;;0.85;90.19;98107.50;224252;1286;22644;-80
2024/01/06 19:08:53;;;;;;;24.40;15.00;;;;;;;0.81;90.12;98108.05;224389;1290;22561;-80
2024/01/06 19:13:57;;;;;;;27.70;17.00;;;;;;;0.79;90.18;98113.98;224371;1280;25292;-81
2024/01/06 19:19:03;;;;;;;30.90;17.50;;;;;;;0.77;90.31;98120.20;224400;1287;25240;-81
2024/01/06 19:24:06;;;;;;;25.50;15.30;;;;;;;0.73;90.26;98118.85;224323;1290;22571;-80
2024/01/06 19:29:12;;;;;;;19.00;12.10;;;;;;;0.68;90.13;98117.60;224378;1287;22585;-80
2024/01/06 19:34:16;;;;;;;18.70;11.80;;;;;;;0.61;90.13;98121.55;224610;1290;22563;-80
2024/01/06 19:39:19;;;;;;;21.30;13.70;;;;;;;0.56;90.22;98123.45;224304;1287;22581;-80
2024/01/06 19:44:23;;;;;;;20.20;12.90;;;;;;;0.52;90.33;98120.96;224293;1279;22588;-80
2024/01/06 19:49:27;;;;;;;20.50;13.00;;;;;;;0.50;90.41;98125.88;224418;1290;22570;-80
2024/01/06 19:54:34;;;;;;;19.90;13.00;;;;;;;0.47;90.49;98125.28;224380;1287;22557;-79
2024/01/06 19:59:37;;;;;;;18.10;11.30;;;;;;;0.44;90.32;98127.96;224517;1289;24318;-80
2024/01/06 20:04:41;;;;;;;16.10;11.20;;;;;;;0.39;90.22;98129.14;224356;1289;22609;-80
2024/01/06 20:09:45;;;;;;;16.20;11.30;;;;;;;0.34;90.21;98127.67;224833;1288;23310;-80
2024/01/06 20:14:51;;;;;;;19.50;12.50;;;;;;;0.35;90.53;98130.54;224693;1289;22559;-79
2024/01/06 20:19:54;;;;;;;19.40;12.20;;;;;;;0.34;90.46;98127.42;224604;1289;22598;-79
2024/01/06 20:24:59;;;;;;;20.10;11.80;;;;;;;0.31;90.32;98126.65;224877;1287;23408;-80
2024/01/06 20:30:03;;;;;;;17.50;11.30;;;;;;;0.28;90.40;98128.38;224363;1289;22555;-80
2024/01/06 20:35:08;;;;;;;15.90;9.60;;;;;;;0.28;90.25;98131.91;224391;1287;22571;-79
2024/01/06 20:40:12;;;;;;;21.70;12.40;;;;;;;0.25;90.32;98129.52;224451;1287;22542;-80
2024/01/06 20:45:17;;;;;;;20.50;12.50;;;;;;;0.26;90.32;98133.46;224394;1290;22490;-80
2024/01/06 20:50:20;;;;;;;18.50;11.00;;;;;;;0.25;90.23;98135.54;224239;1290;22556;-79
2024/01/06 20:55:23;;;;;;;16.50;10.50;;;;;;;0.23;90.34;98135.08;224201;1289;25442;-79
2024/01/06 21:00:32;;;;;;;11.20;7.90;;;;;;;0.18;90.09;98143.46;224342;1290;22617;-79
2024/01/06 21:05:37;;;;;;;18.80;10.70;;;;;;;0.10;89.90;98143.38;224277;1286;22578;-79
2024/01/06 21:10:39;;;;;;;16.70;10.10;;;;;;;0.04;90.06;98148.42;224277;1289;22567;-79
2024/01/06 21:15:42;;;;;;;13.60;10.10;;;;;;;-0.03;90.06;98148.34;224295;1284;22559;-79
2024/01/06 21:20:44;;;;;;;17.10;11.90;;;;;;;-0.04;90.29;98151.04;224321;1290;22563;-79
2024/01/06 21:25:46;;;;;;;15.80;11.30;;;;;;;-0.03;90.28;98149.02;224160;1290;23315;-79
2024/01/06 21:30:49;;;;;;;17.70;10.80;;;;;;;-0.03;90.09;98154.02;224289;1290;24260;-79
2024/01/06 21:35:52;;;;;;;17.80;11.20;;;;;;;-0.04;90.15;98158.97;224500;1290;22480;-80
2024/01/06 21:40:57;;;;;;;19.50;12.70;;;;;;;-0.04;90.09;98159.00;224487;1290;22594;-79
2024/01/06 21:46:01;;;;;;;20.60;13.60;;;;;;;-0.07;89.96;98166.55;224352;1290;22534;-79
2024/01/06 21:51:04;;;;;;;20.90;13.40;;;;;;;-0.09;89.89;98164.60;224337;1284;22620;-80
2024/01/06 21:56:07;;;;;;;20.30;13.30;;;;;;;-0.11;90.07;98166.19;224253;1290;22566;-80
2024/01/06 22:01:10;;;;;;;16.40;11.00;;;;;;;-0.16;89.81;98168.16;224636;1290;25939;-80
2024/01/06 22:06:16;;;;;;;25.20;15.50;;;;;;;-0.20;89.89;98169.06;224747;1290;22701;-80
2024/01/06 22:11:18;;;;;;;24.50;13.50;;;;;;;-0.25;89.90;98172.30;224694;1286;22517;-80
2024/01/06 22:16:22;;;;;;;26.60;15.60;;;;;;;-0.31;89.85;98174.60;224601;1290;22563;-80
2024/01/06 22:21:24;;;;;;;26.50;16.30;;;;;;;-0.37;89.67;98175.73;224697;1287;24307;-79
2024/01/06 22:26:28;;;;;;;22.80;14.10;;;;;;;-0.42;89.96;98181.39;224553;1290;22559;-80
2024/01/06 22:31:31;;;;;;;23.70;15.10;;;;;;;-0.45;89.86;98180.46;224534;1290;22671;-80
2024/01/06 22:36:36;;;;;;;20.90;13.40;;;;;;;-0.45;89.93;98181.46;224546;1290;22667;-80
2024/01/06 22:41:42;;;;;;;23.50;14.70;;;;;;;-0.47;89.70;98182.06;224671;1290;22608;-79
2024/01/06 22:46:45;;;;;;;19.00;12.20;;;;;;;-0.50;89.66;98180.03;224661;1290;22558;-80
2024/01/06 22:51:47;;;;;;;20.60;13.90;;;;;;;-0.55;89.31;98188.73;224895;1288;22611;-80
2024/01/06 22:56:49;;;;;;;21.70;13.60;;;;;;;-0.56;89.53;98188.30;224741;1284;22690;-80
2024/01/06 23:01:54;;;;;;;19.70;12.90;;;;;;;-0.56;89.87;98188.12;224661;1290;22593;-80
2024/01/06 23:06:56;;;;;;;18.90;13.20;;;;;;;-0.59;89.56;98199.11;224812;1287;22560;-80
2024/01/06 23:12:00;;;;;;;21.80;13.90;;;;;;;-0.63;89.78;98196.11;224913;1287;23661;-80
2024/01/06 23:17:03;;;;;;;21.20;13.90;;;;;;;-0.68;90.26;98193.85;225085;1290;22555;-80
2024/01/06 23:22:06;;;;;;;19.50;12.10;;;;;;;-0.71;90.21;98194.98;224832;1284;22684;-80